sensor_id;sensor_type;location;lat;lon;timestamp;P1;durP1;ratioP1;P2;durP2;ratioP2
10154;SDS011;5118;48.570;7.916;2022-09-11T00:01:43;3.10;;;2.10;;
10154;SDS011;5118;48.570;7.916;2022-09-11T00:04:13;4.60;;;2.00;;
10154;SDS011;5118;48.570;7.916;2022-09-11T00:06:42;3.17;;;2.00;;
10154;SDS011;5118;48.570;7.916;2022-09-11T00:09:10;4.53;;;2.33;;
10154;SDS011;5118;48.570;7.916;2022-09-11T00:11:40;3.60;;;2.57;;
10154;SDS011;5118;48.570;7.916;2022-09-11T00:14:09;3.67;;;2.40;;
10154;SDS011;5118;48.570;7.916;2022-09-11T00:16:41;3.17;;;2.30;;
10154;SDS011;5118;48.570;7.916;2022-09-11T00:19:12;6.33;;;2.33;;
10154;SDS011;5118;48.570;7.916;2022-09-11T00:21:43;4.43;;;2.40;;
10154;SDS011;5118;48.570;7.916;2022-09-11T00:24:11;4.93;;;2.70;;
10154;SDS011;5118;48.570;7.916;2022-09-11T00:26:40;4.43;;;2.27;;
10154;SDS011;5118;48.570;7.916;2022-09-11T00:29:08;4.50;;;2.47;;
10154;SDS011;5118;48.570;7.916;2022-09-11T00:31:37;2.77;;;2.20;;
10154;SDS011;5118;48.570;7.916;2022-09-11T00:34:05;2.97;;;2.30;;
10154;SDS011;5118;48.570;7.916;2022-09-11T00:36:35;3.90;;;2.13;;
10154;SDS011;5118;48.570;7.916;2022-09-11T00:39:06;5.90;;;2.53;;
10154;SDS011;5118;48.570;7.916;2022-09-11T00:41:36;3.63;;;2.40;;
10154;SDS011;5118;48.570;7.916;2022-09-11T00:44:07;4.60;;;2.40;;
10154;SDS011;5118;48.570;7.916;2022-09-11T00:47:13;4.80;;;2.63;;
10154;SDS011;5118;48.570;7.916;2022-09-11T00:49:44;5.10;;;2.37;;
10154;SDS011;5118;48.570;7.916;2022-09-11T00:52:19;5.70;;;2.20;;
10154;SDS011;5118;48.570;7.916;2022-09-11T00:54:52;3.57;;;2.43;;
10154;SDS011;5118;48.570;7.916;2022-09-11T00:57:26;5.00;;;2.20;;
10154;SDS011;5118;48.570;7.916;2022-09-11T00:59:57;3.73;;;2.20;;
10154;SDS011;5118;48.570;7.916;2022-09-11T01:02:28;3.60;;;2.20;;
10154;SDS011;5118;48.570;7.916;2022-09-11T01:05:00;4.23;;;2.33;;
10154;SDS011;5118;48.570;7.916;2022-09-11T01:07:31;4.50;;;2.20;;
10154;SDS011;5118;48.570;7.916;2022-09-11T01:10:02;4.57;;;2.23;;
10154;SDS011;5118;48.570;7.916;2022-09-11T01:12:35;4.23;;;2.17;;
10154;SDS011;5118;48.570;7.916;2022-09-11T01:15:28;2.77;;;2.10;;
10154;SDS011;5118;48.570;7.916;2022-09-11T01:18:02;5.13;;;2.43;;
10154;SDS011;5118;48.570;7.916;2022-09-11T01:20:40;2.80;;;2.10;;
10154;SDS011;5118;48.570;7.916;2022-09-11T01:23:42;3.70;;;2.10;;
10154;SDS011;5118;48.570;7.916;2022-09-11T01:29:25;3.17;;;2.20;;
10154;SDS011;5118;48.570;7.916;2022-09-11T01:31:56;2.67;;;2.30;;
10154;SDS011;5118;48.570;7.916;2022-09-11T01:34:32;3.50;;;2.10;;
10154;SDS011;5118;48.570;7.916;2022-09-11T01:37:04;7.47;;;2.30;;
10154;SDS011;5118;48.570;7.916;2022-09-11T01:39:37;2.93;;;2.30;;
10154;SDS011;5118;48.570;7.916;2022-09-11T01:42:10;2.30;;;2.10;;
10154;SDS011;5118;48.570;7.916;2022-09-11T01:44:44;3.80;;;2.50;;
10154;SDS011;5118;48.570;7.916;2022-09-11T01:47:16;3.57;;;2.37;;
10154;SDS011;5118;48.570;7.916;2022-09-11T01:49:49;2.40;;;2.20;;
10154;SDS011;5118;48.570;7.916;2022-09-11T01:52:26;2.53;;;2.10;;
10154;SDS011;5118;48.570;7.916;2022-09-11T01:55:00;4.33;;;2.67;;
10154;SDS011;5118;48.570;7.916;2022-09-11T01:57:32;2.63;;;2.30;;
10154;SDS011;5118;48.570;7.916;2022-09-11T02:00:07;2.93;;;2.40;;
10154;SDS011;5118;48.570;7.916;2022-09-11T02:02:41;4.67;;;2.60;;
10154;SDS011;5118;48.570;7.916;2022-09-11T02:05:13;3.80;;;2.57;;
10154;SDS011;5118;48.570;7.916;2022-09-11T02:07:47;3.73;;;2.40;;
10154;SDS011;5118;48.570;7.916;2022-09-11T02:10:19;2.90;;;2.60;;
10154;SDS011;5118;48.570;7.916;2022-09-11T02:12:52;3.27;;;2.33;;
10154;SDS011;5118;48.570;7.916;2022-09-11T02:15:28;5.63;;;2.60;;
10154;SDS011;5118;48.570;7.916;2022-09-11T02:18:05;4.30;;;2.60;;
10154;SDS011;5118;48.570;7.916;2022-09-11T02:20:38;4.00;;;2.63;;
10154;SDS011;5118;48.570;7.916;2022-09-11T02:23:09;4.07;;;2.83;;
10154;SDS011;5118;48.570;7.916;2022-09-11T02:25:37;3.80;;;2.67;;
10154;SDS011;5118;48.570;7.916;2022-09-11T02:28:06;4.10;;;2.70;;
10154;SDS011;5118;48.570;7.916;2022-09-11T02:30:35;3.43;;;2.67;;
10154;SDS011;5118;48.570;7.916;2022-09-11T02:35:58;4.07;;;2.60;;
10154;SDS011;5118;48.570;7.916;2022-09-11T02:38:40;2.87;;;2.57;;
10154;SDS011;5118;48.570;7.916;2022-09-11T02:41:18;4.63;;;2.73;;
10154;SDS011;5118;48.570;7.916;2022-09-11T02:43:57;4.60;;;3.00;;
10154;SDS011;5118;48.570;7.916;2022-09-11T02:46:38;5.20;;;2.70;;
10154;SDS011;5118;48.570;7.916;2022-09-11T02:49:23;5.80;;;2.70;;
10154;SDS011;5118;48.570;7.916;2022-09-11T02:52:01;4.90;;;2.90;;
10154;SDS011;5118;48.570;7.916;2022-09-11T02:54:34;8.47;;;2.90;;
10154;SDS011;5118;48.570;7.916;2022-09-11T02:57:16;4.33;;;3.00;;
10154;SDS011;5118;48.570;7.916;2022-09-11T02:59:52;4.03;;;2.80;;
10154;SDS011;5118;48.570;7.916;2022-09-11T03:02:24;4.73;;;2.90;;
10154;SDS011;5118;48.570;7.916;2022-09-11T03:04:53;5.60;;;3.00;;
10154;SDS011;5118;48.570;7.916;2022-09-11T03:07:22;6.53;;;3.00;;
10154;SDS011;5118;48.570;7.916;2022-09-11T03:09:52;2.97;;;2.60;;
10154;SDS011;5118;48.570;7.916;2022-09-11T03:12:22;4.73;;;2.53;;
10154;SDS011;5118;48.570;7.916;2022-09-11T03:14:52;4.40;;;2.50;;
10154;SDS011;5118;48.570;7.916;2022-09-11T03:17:22;7.80;;;2.80;;
10154;SDS011;5118;48.570;7.916;2022-09-11T03:19:52;3.37;;;2.50;;
10154;SDS011;5118;48.570;7.916;2022-09-11T03:22:21;4.37;;;2.40;;
10154;SDS011;5118;48.570;7.916;2022-09-11T03:24:51;3.50;;;2.40;;
10154;SDS011;5118;48.570;7.916;2022-09-11T03:27:20;2.80;;;2.10;;
10154;SDS011;5118;48.570;7.916;2022-09-11T03:29:49;3.17;;;2.53;;
10154;SDS011;5118;48.570;7.916;2022-09-11T03:32:18;3.87;;;2.33;;
10154;SDS011;5118;48.570;7.916;2022-09-11T03:34:48;3.97;;;2.40;;
10154;SDS011;5118;48.570;7.916;2022-09-11T03:37:18;5.13;;;2.70;;
10154;SDS011;5118;48.570;7.916;2022-09-11T03:39:46;4.37;;;2.43;;
10154;SDS011;5118;48.570;7.916;2022-09-11T03:42:15;2.67;;;2.20;;
10154;SDS011;5118;48.570;7.916;2022-09-11T03:44:43;4.27;;;2.40;;
10154;SDS011;5118;48.570;7.916;2022-09-11T03:47:12;4.83;;;2.23;;
10154;SDS011;5118;48.570;7.916;2022-09-11T03:49:40;4.63;;;2.20;;
10154;SDS011;5118;48.570;7.916;2022-09-11T03:52:10;3.90;;;2.30;;
10154;SDS011;5118;48.570;7.916;2022-09-11T03:54:39;4.23;;;2.50;;
10154;SDS011;5118;48.570;7.916;2022-09-11T03:57:08;2.50;;;2.20;;
10154;SDS011;5118;48.570;7.916;2022-09-11T03:59:37;4.53;;;2.10;;
10154;SDS011;5118;48.570;7.916;2022-09-11T04:02:05;6.27;;;2.63;;
10154;SDS011;5118;48.570;7.916;2022-09-11T04:04:34;2.93;;;2.30;;
10154;SDS011;5118;48.570;7.916;2022-09-11T04:07:03;2.50;;;2.30;;
10154;SDS011;5118;48.570;7.916;2022-09-11T04:09:32;3.23;;;2.30;;
10154;SDS011;5118;48.570;7.916;2022-09-11T04:12:01;2.57;;;2.00;;
10154;SDS011;5118;48.570;7.916;2022-09-11T04:14:29;2.87;;;2.27;;
10154;SDS011;5118;48.570;7.916;2022-09-11T04:16:58;4.23;;;2.40;;
10154;SDS011;5118;48.570;7.916;2022-09-11T04:19:29;2.67;;;2.40;;
10154;SDS011;5118;48.570;7.916;2022-09-11T04:21:59;4.27;;;2.30;;
10154;SDS011;5118;48.570;7.916;2022-09-11T04:24:32;2.50;;;2.30;;
10154;SDS011;5118;48.570;7.916;2022-09-11T04:27:05;3.43;;;2.40;;
10154;SDS011;5118;48.570;7.916;2022-09-11T04:29:36;4.83;;;2.50;;
10154;SDS011;5118;48.570;7.916;2022-09-11T04:32:07;3.57;;;2.30;;
10154;SDS011;5118;48.570;7.916;2022-09-11T04:34:38;4.07;;;2.53;;
10154;SDS011;5118;48.570;7.916;2022-09-11T04:37:08;5.13;;;2.70;;
10154;SDS011;5118;48.570;7.916;2022-09-11T04:39:39;4.87;;;2.40;;
10154;SDS011;5118;48.570;7.916;2022-09-11T04:42:10;6.90;;;2.60;;
10154;SDS011;5118;48.570;7.916;2022-09-11T04:44:41;4.10;;;2.63;;
10154;SDS011;5118;48.570;7.916;2022-09-11T04:47:13;5.70;;;2.40;;
10154;SDS011;5118;48.570;7.916;2022-09-11T04:49:44;4.17;;;2.57;;
10154;SDS011;5118;48.570;7.916;2022-09-11T04:52:16;6.40;;;2.30;;
10154;SDS011;5118;48.570;7.916;2022-09-11T04:54:47;6.73;;;2.60;;
10154;SDS011;5118;48.570;7.916;2022-09-11T04:57:17;6.57;;;2.70;;
10154;SDS011;5118;48.570;7.916;2022-09-11T04:59:47;3.73;;;2.50;;
10154;SDS011;5118;48.570;7.916;2022-09-11T05:02:18;5.47;;;2.80;;
10154;SDS011;5118;48.570;7.916;2022-09-11T05:04:51;5.17;;;2.57;;
10154;SDS011;5118;48.570;7.916;2022-09-11T05:07:21;4.90;;;2.63;;
10154;SDS011;5118;48.570;7.916;2022-09-11T05:09:53;6.73;;;2.83;;
10154;SDS011;5118;48.570;7.916;2022-09-11T05:12:25;4.70;;;2.80;;
10154;SDS011;5118;48.570;7.916;2022-09-11T05:14:55;4.10;;;2.90;;
10154;SDS011;5118;48.570;7.916;2022-09-11T05:17:30;3.67;;;2.63;;
10154;SDS011;5118;48.570;7.916;2022-09-11T05:20:03;4.33;;;2.90;;
10154;SDS011;5118;48.570;7.916;2022-09-11T05:22:37;4.00;;;2.80;;
10154;SDS011;5118;48.570;7.916;2022-09-11T05:25:05;5.70;;;2.70;;
10154;SDS011;5118;48.570;7.916;2022-09-11T05:27:35;4.70;;;3.10;;
10154;SDS011;5118;48.570;7.916;2022-09-11T05:30:05;7.53;;;3.00;;
10154;SDS011;5118;48.570;7.916;2022-09-11T05:32:34;5.63;;;3.00;;
10154;SDS011;5118;48.570;7.916;2022-09-11T05:35:02;4.00;;;3.00;;
10154;SDS011;5118;48.570;7.916;2022-09-11T05:37:33;5.00;;;2.83;;
10154;SDS011;5118;48.570;7.916;2022-09-11T05:40:02;3.27;;;2.80;;
10154;SDS011;5118;48.570;7.916;2022-09-11T05:42:31;4.27;;;3.10;;
10154;SDS011;5118;48.570;7.916;2022-09-11T05:45:00;3.90;;;2.90;;
10154;SDS011;5118;48.570;7.916;2022-09-11T05:47:29;5.43;;;3.30;;
10154;SDS011;5118;48.570;7.916;2022-09-11T05:49:57;4.03;;;3.17;;
10154;SDS011;5118;48.570;7.916;2022-09-11T05:52:26;6.77;;;3.40;;
10154;SDS011;5118;48.570;7.916;2022-09-11T05:54:55;5.00;;;3.13;;
10154;SDS011;5118;48.570;7.916;2022-09-11T05:57:24;5.80;;;3.00;;
10154;SDS011;5118;48.570;7.916;2022-09-11T05:59:53;3.77;;;2.63;;
10154;SDS011;5118;48.570;7.916;2022-09-11T06:02:24;5.37;;;3.07;;
10154;SDS011;5118;48.570;7.916;2022-09-11T06:04:53;6.00;;;3.13;;
10154;SDS011;5118;48.570;7.916;2022-09-11T06:07:22;4.70;;;3.10;;
10154;SDS011;5118;48.570;7.916;2022-09-11T06:09:52;5.03;;;3.30;;
10154;SDS011;5118;48.570;7.916;2022-09-11T06:12:26;5.67;;;3.53;;
10154;SDS011;5118;48.570;7.916;2022-09-11T06:14:56;5.57;;;3.30;;
10154;SDS011;5118;48.570;7.916;2022-09-11T06:17:25;4.63;;;3.40;;
10154;SDS011;5118;48.570;7.916;2022-09-11T06:19:54;3.90;;;3.23;;
10154;SDS011;5118;48.570;7.916;2022-09-11T06:22:22;6.30;;;3.30;;
10154;SDS011;5118;48.570;7.916;2022-09-11T06:24:52;3.87;;;3.33;;
10154;SDS011;5118;48.570;7.916;2022-09-11T06:27:21;4.23;;;3.03;;
10154;SDS011;5118;48.570;7.916;2022-09-11T06:29:51;4.90;;;2.97;;
10154;SDS011;5118;48.570;7.916;2022-09-11T06:32:21;4.73;;;3.00;;
10154;SDS011;5118;48.570;7.916;2022-09-11T06:34:51;5.07;;;3.23;;
10154;SDS011;5118;48.570;7.916;2022-09-11T06:37:20;4.80;;;2.90;;
10154;SDS011;5118;48.570;7.916;2022-09-11T06:39:48;7.13;;;3.03;;
10154;SDS011;5118;48.570;7.916;2022-09-11T06:42:23;8.33;;;3.33;;
10154;SDS011;5118;48.570;7.916;2022-09-11T06:44:51;5.20;;;3.00;;
10154;SDS011;5118;48.570;7.916;2022-09-11T06:47:20;4.70;;;3.23;;
10154;SDS011;5118;48.570;7.916;2022-09-11T06:49:52;3.57;;;2.90;;
10154;SDS011;5118;48.570;7.916;2022-09-11T06:52:23;4.53;;;3.30;;
10154;SDS011;5118;48.570;7.916;2022-09-11T06:55:03;3.83;;;3.00;;
10154;SDS011;5118;48.570;7.916;2022-09-11T06:57:34;4.53;;;3.00;;
10154;SDS011;5118;48.570;7.916;2022-09-11T07:00:12;4.73;;;3.10;;
10154;SDS011;5118;48.570;7.916;2022-09-11T07:02:40;4.67;;;3.10;;
10154;SDS011;5118;48.570;7.916;2022-09-11T07:05:11;3.20;;;2.90;;
10154;SDS011;5118;48.570;7.916;2022-09-11T07:07:43;5.30;;;2.67;;
10154;SDS011;5118;48.570;7.916;2022-09-11T07:10:14;6.47;;;2.70;;
10154;SDS011;5118;48.570;7.916;2022-09-11T07:12:47;5.60;;;3.00;;
10154;SDS011;5118;48.570;7.916;2022-09-11T07:15:16;4.53;;;2.90;;
10154;SDS011;5118;48.570;7.916;2022-09-11T07:17:46;5.07;;;3.22;;
10154;SDS011;5118;48.570;7.916;2022-09-11T07:20:15;4.03;;;3.00;;
10154;SDS011;5118;48.570;7.916;2022-09-11T07:22:44;3.67;;;3.10;;
10154;SDS011;5118;48.570;7.916;2022-09-11T07:25:14;4.03;;;3.10;;
10154;SDS011;5118;48.570;7.916;2022-09-11T07:27:45;4.82;;;3.03;;
10154;SDS011;5118;48.570;7.916;2022-09-11T07:30:14;5.20;;;2.92;;
10154;SDS011;5118;48.570;7.916;2022-09-11T07:32:45;4.82;;;3.30;;
10154;SDS011;5118;48.570;7.916;2022-09-11T07:35:13;3.42;;;2.95;;
10154;SDS011;5118;48.570;7.916;2022-09-11T07:37:49;3.00;;;2.70;;
10154;SDS011;5118;48.570;7.916;2022-09-11T07:40:23;3.30;;;2.95;;
10154;SDS011;5118;48.570;7.916;2022-09-11T07:42:51;4.65;;;2.75;;
10154;SDS011;5118;48.570;7.916;2022-09-11T07:45:20;4.45;;;3.17;;
10154;SDS011;5118;48.570;7.916;2022-09-11T07:47:50;6.43;;;2.88;;
10154;SDS011;5118;48.570;7.916;2022-09-11T07:50:20;3.90;;;2.72;;
10154;SDS011;5118;48.570;7.916;2022-09-11T07:52:51;6.40;;;3.20;;
10154;SDS011;5118;48.570;7.916;2022-09-11T07:55:21;3.95;;;3.10;;
10154;SDS011;5118;48.570;7.916;2022-09-11T07:57:51;8.32;;;3.50;;
10154;SDS011;5118;48.570;7.916;2022-09-11T08:00:21;5.03;;;3.20;;
10154;SDS011;5118;48.570;7.916;2022-09-11T08:03:00;3.47;;;3.15;;
10154;SDS011;5118;48.570;7.916;2022-09-11T08:05:33;4.35;;;3.00;;
10154;SDS011;5118;48.570;7.916;2022-09-11T08:08:03;5.90;;;3.47;;
10154;SDS011;5118;48.570;7.916;2022-09-11T08:10:31;3.70;;;3.22;;
10154;SDS011;5118;48.570;7.916;2022-09-11T08:13:04;4.90;;;3.38;;
10154;SDS011;5118;48.570;7.916;2022-09-11T08:15:35;3.88;;;3.30;;
10154;SDS011;5118;48.570;7.916;2022-09-11T08:18:05;4.55;;;3.45;;
10154;SDS011;5118;48.570;7.916;2022-09-11T08:20:34;4.93;;;3.60;;
10154;SDS011;5118;48.570;7.916;2022-09-11T08:23:04;4.35;;;3.20;;
10154;SDS011;5118;48.570;7.916;2022-09-11T08:25:34;5.20;;;3.25;;
10154;SDS011;5118;48.570;7.916;2022-09-11T08:28:03;3.83;;;3.17;;
10154;SDS011;5118;48.570;7.916;2022-09-11T08:30:33;3.50;;;3.20;;
10154;SDS011;5118;48.570;7.916;2022-09-11T08:33:04;5.07;;;3.30;;
10154;SDS011;5118;48.570;7.916;2022-09-11T08:35:35;4.00;;;3.58;;
10154;SDS011;5118;48.570;7.916;2022-09-11T08:38:05;4.35;;;3.33;;
10154;SDS011;5118;48.570;7.916;2022-09-11T08:40:34;3.60;;;3.30;;
10154;SDS011;5118;48.570;7.916;2022-09-11T08:43:08;5.57;;;3.72;;
10154;SDS011;5118;48.570;7.916;2022-09-11T08:45:46;3.50;;;3.20;;
10154;SDS011;5118;48.570;7.916;2022-09-11T08:48:17;3.70;;;3.40;;
10154;SDS011;5118;48.570;7.916;2022-09-11T08:50:53;4.40;;;3.50;;
10154;SDS011;5118;48.570;7.916;2022-09-11T08:53:23;7.13;;;3.72;;
10154;SDS011;5118;48.570;7.916;2022-09-11T08:55:54;6.03;;;3.88;;
10154;SDS011;5118;48.570;7.916;2022-09-11T08:58:34;5.55;;;4.55;;
10154;SDS011;5118;48.570;7.916;2022-09-11T09:01:14;6.75;;;4.55;;
10154;SDS011;5118;48.570;7.916;2022-09-11T09:03:53;8.20;;;5.45;;
10154;SDS011;5118;48.570;7.916;2022-09-11T09:06:47;7.65;;;4.20;;
10154;SDS011;5118;48.570;7.916;2022-09-11T09:09:31;4.75;;;4.35;;
10154;SDS011;5118;48.570;7.916;2022-09-11T09:12:11;4.45;;;4.05;;
10154;SDS011;5118;48.570;7.916;2022-09-11T09:14:59;4.47;;;4.05;;
10154;SDS011;5118;48.570;7.916;2022-09-11T09:17:43;4.05;;;3.65;;
10154;SDS011;5118;48.570;7.916;2022-09-11T09:20:15;5.53;;;4.45;;
10154;SDS011;5118;48.570;7.916;2022-09-11T09:22:50;5.50;;;4.25;;
10154;SDS011;5118;48.570;7.916;2022-09-11T09:25:25;5.43;;;4.25;;
10154;SDS011;5118;48.570;7.916;2022-09-11T09:27:57;5.32;;;4.50;;
10154;SDS011;5118;48.570;7.916;2022-09-11T09:30:43;9.32;;;4.22;;
10154;SDS011;5118;48.570;7.916;2022-09-11T09:33:27;4.75;;;4.07;;
10154;SDS011;5118;48.570;7.916;2022-09-11T09:36:01;4.97;;;4.32;;
10154;SDS011;5118;48.570;7.916;2022-09-11T09:38:43;8.35;;;4.38;;
10154;SDS011;5118;48.570;7.916;2022-09-11T09:41:19;5.60;;;4.65;;
10154;SDS011;5118;48.570;7.916;2022-09-11T09:44:05;5.80;;;5.20;;
10154;SDS011;5118;48.570;7.916;2022-09-11T09:46:45;5.47;;;5.03;;
10154;SDS011;5118;48.570;7.916;2022-09-11T09:49:17;4.88;;;4.47;;
10154;SDS011;5118;48.570;7.916;2022-09-11T09:51:49;5.35;;;4.85;;
10154;SDS011;5118;48.570;7.916;2022-09-11T09:54:18;5.03;;;4.60;;
10154;SDS011;5118;48.570;7.916;2022-09-11T09:56:51;6.10;;;5.60;;
10154;SDS011;5118;48.570;7.916;2022-09-11T09:59:25;6.85;;;5.70;;
10154;SDS011;5118;48.570;7.916;2022-09-11T10:01:58;5.85;;;5.28;;
10154;SDS011;5118;48.570;7.916;2022-09-11T10:04:27;7.30;;;5.72;;
10154;SDS011;5118;48.570;7.916;2022-09-11T10:07:06;6.30;;;5.70;;
10154;SDS011;5118;48.570;7.916;2022-09-11T10:09:43;6.10;;;5.50;;
10154;SDS011;5118;48.570;7.916;2022-09-11T10:12:16;6.68;;;5.30;;
10154;SDS011;5118;48.570;7.916;2022-09-11T10:14:49;6.35;;;5.75;;
10154;SDS011;5118;48.570;7.916;2022-09-11T10:17:21;7.43;;;5.90;;
10154;SDS011;5118;48.570;7.916;2022-09-11T10:20:10;6.05;;;5.55;;
10154;SDS011;5118;48.570;7.916;2022-09-11T10:22:47;5.55;;;5.00;;
10154;SDS011;5118;48.570;7.916;2022-09-11T10:25:18;5.30;;;4.90;;
10154;SDS011;5118;48.570;7.916;2022-09-11T10:27:53;5.03;;;4.60;;
10154;SDS011;5118;48.570;7.916;2022-09-11T10:30:28;5.10;;;4.60;;
10154;SDS011;5118;48.570;7.916;2022-09-11T10:33:00;5.40;;;4.90;;
10154;SDS011;5118;48.570;7.916;2022-09-11T10:35:32;4.50;;;4.10;;
10154;SDS011;5118;48.570;7.916;2022-09-11T10:38:07;4.55;;;4.15;;
10154;SDS011;5118;48.570;7.916;2022-09-11T10:40:53;4.72;;;4.32;;
10154;SDS011;5118;48.570;7.916;2022-09-11T10:43:28;4.45;;;3.95;;
10154;SDS011;5118;48.570;7.916;2022-09-11T10:46:02;5.13;;;4.15;;
10154;SDS011;5118;48.570;7.916;2022-09-11T10:48:39;4.47;;;4.07;;
10154;SDS011;5118;48.570;7.916;2022-09-11T10:51:09;3.30;;;3.00;;
10154;SDS011;5118;48.570;7.916;2022-09-11T10:53:45;3.13;;;2.83;;
10154;SDS011;5118;48.570;7.916;2022-09-11T10:56:21;3.05;;;2.75;;
10154;SDS011;5118;48.570;7.916;2022-09-11T10:58:52;3.00;;;2.70;;
10154;SDS011;5118;48.570;7.916;2022-09-11T11:01:25;2.83;;;2.50;;
10154;SDS011;5118;48.570;7.916;2022-09-11T11:03:54;3.30;;;2.30;;
10154;SDS011;5118;48.570;7.916;2022-09-11T11:06:28;2.53;;;2.00;;
10154;SDS011;5118;48.570;7.916;2022-09-11T11:12:12;2.40;;;2.20;;
10154;SDS011;5118;48.570;7.916;2022-09-11T11:15:08;2.38;;;2.17;;
10154;SDS011;5118;48.570;7.916;2022-09-11T11:18:00;2.40;;;2.20;;
10154;SDS011;5118;48.570;7.916;2022-09-11T11:20:54;2.17;;;2.08;;
10154;SDS011;5118;48.570;7.916;2022-09-11T11:23:42;2.40;;;2.20;;
10154;SDS011;5118;48.570;7.916;2022-09-11T11:26:24;2.70;;;2.50;;
10154;SDS011;5118;48.570;7.916;2022-09-11T11:29:09;2.88;;;2.28;;
10154;SDS011;5118;48.570;7.916;2022-09-11T11:31:53;2.65;;;2.45;;
10154;SDS011;5118;48.570;7.916;2022-09-11T11:34:40;4.45;;;2.78;;
10154;SDS011;5118;48.570;7.916;2022-09-11T11:37:27;3.42;;;2.30;;
10154;SDS011;5118;48.570;7.916;2022-09-11T11:40:02;2.90;;;2.60;;
10154;SDS011;5118;48.570;7.916;2022-09-11T11:42:34;2.55;;;2.33;;
10154;SDS011;5118;48.570;7.916;2022-09-11T11:45:08;2.38;;;2.17;;
10154;SDS011;5118;48.570;7.916;2022-09-11T11:47:47;2.40;;;2.10;;
10154;SDS011;5118;48.570;7.916;2022-09-11T11:50:20;3.22;;;2.10;;
10154;SDS011;5118;48.570;7.916;2022-09-11T11:52:59;1.70;;;1.60;;
10154;SDS011;5118;48.570;7.916;2022-09-11T11:55:37;2.25;;;2.08;;
10154;SDS011;5118;48.570;7.916;2022-09-11T11:58:14;2.95;;;2.20;;
10154;SDS011;5118;48.570;7.916;2022-09-11T12:00:48;2.20;;;2.00;;
10154;SDS011;5118;48.570;7.916;2022-09-11T12:03:26;2.03;;;1.70;;
10154;SDS011;5118;48.570;7.916;2022-09-11T12:05:59;2.22;;;2.03;;
10154;SDS011;5118;48.570;7.916;2022-09-11T12:08:28;2.22;;;2.00;;
10154;SDS011;5118;48.570;7.916;2022-09-11T12:10:57;2.20;;;2.00;;
10154;SDS011;5118;48.570;7.916;2022-09-11T12:13:29;2.35;;;2.00;;
10154;SDS011;5118;48.570;7.916;2022-09-11T12:16:01;1.90;;;1.80;;
10154;SDS011;5118;48.570;7.916;2022-09-11T12:18:38;2.47;;;1.80;;
10154;SDS011;5118;48.570;7.916;2022-09-11T12:24:16;1.48;;;1.40;;
10154;SDS011;5118;48.570;7.916;2022-09-11T12:26:46;2.10;;;1.90;;
10154;SDS011;5118;48.570;7.916;2022-09-11T12:29:49;1.80;;;1.70;;
10154;SDS011;5118;48.570;7.916;2022-09-11T12:32:39;1.70;;;1.60;;
10154;SDS011;5118;48.570;7.916;2022-09-11T12:35:15;2.38;;;1.98;;
10154;SDS011;5118;48.570;7.916;2022-09-11T12:37:54;1.95;;;1.80;;
10154;SDS011;5118;48.570;7.916;2022-09-11T12:40:29;2.13;;;1.90;;
10154;SDS011;5118;48.570;7.916;2022-09-11T12:43:23;2.42;;;1.85;;
10154;SDS011;5118;48.570;7.916;2022-09-11T12:45:55;1.90;;;1.80;;
10154;SDS011;5118;48.570;7.916;2022-09-11T12:48:24;2.08;;;1.60;;
10154;SDS011;5118;48.570;7.916;2022-09-11T12:51:14;2.10;;;1.98;;
10154;SDS011;5118;48.570;7.916;2022-09-11T12:53:46;1.85;;;1.75;;
10154;SDS011;5118;48.570;7.916;2022-09-11T12:56:18;1.70;;;1.60;;
10154;SDS011;5118;48.570;7.916;2022-09-11T12:58:50;1.75;;;1.63;;
10154;SDS011;5118;48.570;7.916;2022-09-11T13:01:23;1.90;;;1.50;;
10154;SDS011;5118;48.570;7.916;2022-09-11T13:03:57;2.03;;;1.58;;
10154;SDS011;5118;48.570;7.916;2022-09-11T13:06:38;2.00;;;1.67;;
10154;SDS011;5118;48.570;7.916;2022-09-11T13:09:15;1.60;;;1.50;;
10154;SDS011;5118;48.570;7.916;2022-09-11T13:11:47;1.60;;;1.50;;
10154;SDS011;5118;48.570;7.916;2022-09-11T13:14:46;3.60;;;1.48;;
10154;SDS011;5118;48.570;7.916;2022-09-11T13:17:20;1.40;;;1.30;;
10154;SDS011;5118;48.570;7.916;2022-09-11T13:19:52;2.38;;;1.50;;
10154;SDS011;5118;48.570;7.916;2022-09-11T13:22:25;4.63;;;1.60;;
10154;SDS011;5118;48.570;7.916;2022-09-11T13:25:06;2.30;;;2.20;;
10154;SDS011;5118;48.570;7.916;2022-09-11T13:27:38;1.50;;;1.40;;
10154;SDS011;5118;48.570;7.916;2022-09-11T13:30:10;1.90;;;1.30;;
10154;SDS011;5118;48.570;7.916;2022-09-11T13:32:40;1.20;;;1.10;;
10154;SDS011;5118;48.570;7.916;2022-09-11T13:35:11;1.38;;;1.30;;
10154;SDS011;5118;48.570;7.916;2022-09-11T13:37:44;1.33;;;1.23;;
10154;SDS011;5118;48.570;7.916;2022-09-11T13:40:20;1.70;;;1.27;;
10154;SDS011;5118;48.570;7.916;2022-09-11T13:42:52;1.42;;;1.10;;
10154;SDS011;5118;48.570;7.916;2022-09-11T13:45:20;1.45;;;1.20;;
10154;SDS011;5118;48.570;7.916;2022-09-11T13:47:51;1.13;;;1.10;;
10154;SDS011;5118;48.570;7.916;2022-09-11T13:50:20;1.63;;;1.40;;
10154;SDS011;5118;48.570;7.916;2022-09-11T13:52:50;1.50;;;1.40;;
10154;SDS011;5118;48.570;7.916;2022-09-11T13:55:21;1.40;;;1.30;;
10154;SDS011;5118;48.570;7.916;2022-09-11T13:57:53;2.65;;;1.45;;
10154;SDS011;5118;48.570;7.916;2022-09-11T14:03:14;1.50;;;1.40;;
10154;SDS011;5118;48.570;7.916;2022-09-11T14:05:49;1.70;;;1.50;;
10154;SDS011;5118;48.570;7.916;2022-09-11T14:08:23;2.17;;;1.50;;
10154;SDS011;5118;48.570;7.916;2022-09-11T14:10:55;1.35;;;1.25;;
10154;SDS011;5118;48.570;7.916;2022-09-11T14:13:28;1.95;;;1.33;;
10154;SDS011;5118;48.570;7.916;2022-09-11T14:16:01;1.50;;;1.40;;
10154;SDS011;5118;48.570;7.916;2022-09-11T14:18:34;1.30;;;1.20;;
10154;SDS011;5118;48.570;7.916;2022-09-11T14:21:10;1.45;;;1.30;;
10154;SDS011;5118;48.570;7.916;2022-09-11T14:23:43;1.30;;;1.20;;
10154;SDS011;5118;48.570;7.916;2022-09-11T14:26:14;1.33;;;1.23;;
10154;SDS011;5118;48.570;7.916;2022-09-11T14:29:00;1.70;;;1.17;;
10154;SDS011;5118;48.570;7.916;2022-09-11T14:31:35;1.60;;;1.30;;
10154;SDS011;5118;48.570;7.916;2022-09-11T14:34:11;2.38;;;1.40;;
10154;SDS011;5118;48.570;7.916;2022-09-11T14:36:43;1.25;;;1.20;;
10154;SDS011;5118;48.570;7.916;2022-09-11T14:39:17;2.90;;;1.40;;
10154;SDS011;5118;48.570;7.916;2022-09-11T14:41:57;1.20;;;1.20;;
10154;SDS011;5118;48.570;7.916;2022-09-11T14:44:26;1.33;;;1.20;;
10154;SDS011;5118;48.570;7.916;2022-09-11T14:46:55;1.48;;;1.30;;
10154;SDS011;5118;48.570;7.916;2022-09-11T14:49:26;1.50;;;1.30;;
10154;SDS011;5118;48.570;7.916;2022-09-11T14:51:55;1.30;;;1.20;;
10154;SDS011;5118;48.570;7.916;2022-09-11T14:54:27;1.30;;;1.20;;
10154;SDS011;5118;48.570;7.916;2022-09-11T14:56:57;1.40;;;1.30;;
10154;SDS011;5118;48.570;7.916;2022-09-11T14:59:26;1.30;;;1.20;;
10154;SDS011;5118;48.570;7.916;2022-09-11T15:01:55;2.08;;;1.40;;
10154;SDS011;5118;48.570;7.916;2022-09-11T15:04:25;1.40;;;1.30;;
10154;SDS011;5118;48.570;7.916;2022-09-11T15:06:55;1.35;;;1.25;;
10154;SDS011;5118;48.570;7.916;2022-09-11T15:09:26;1.40;;;1.30;;
10154;SDS011;5118;48.570;7.916;2022-09-11T15:11:54;1.00;;;1.00;;
10154;SDS011;5118;48.570;7.916;2022-09-11T15:14:23;1.48;;;1.30;;
10154;SDS011;5118;48.570;7.916;2022-09-11T15:17:13;1.27;;;1.17;;
10154;SDS011;5118;48.570;7.916;2022-09-11T15:19:46;2.92;;;1.48;;
10154;SDS011;5118;48.570;7.916;2022-09-11T15:22:15;1.63;;;1.20;;
10154;SDS011;5118;48.570;7.916;2022-09-11T15:24:45;1.25;;;1.13;;
10154;SDS011;5118;48.570;7.916;2022-09-11T15:27:15;1.10;;;1.10;;
10154;SDS011;5118;48.570;7.916;2022-09-11T15:29:44;1.17;;;1.13;;
10154;SDS011;5118;48.570;7.916;2022-09-11T15:32:12;1.27;;;1.20;;
10154;SDS011;5118;48.570;7.916;2022-09-11T15:34:40;1.73;;;1.20;;
10154;SDS011;5118;48.570;7.916;2022-09-11T15:37:09;1.63;;;1.35;;
10154;SDS011;5118;48.570;7.916;2022-09-11T15:39:37;1.13;;;1.10;;
10154;SDS011;5118;48.570;7.916;2022-09-11T15:42:07;1.45;;;1.27;;
10154;SDS011;5118;48.570;7.916;2022-09-11T15:44:35;3.47;;;1.20;;
10154;SDS011;5118;48.570;7.916;2022-09-11T15:47:04;2.33;;;1.30;;
10154;SDS011;5118;48.570;7.916;2022-09-11T15:49:33;1.30;;;1.20;;
10154;SDS011;5118;48.570;7.916;2022-09-11T15:52:06;1.23;;;1.10;;